createdAt,value
2023-04-16T00:00:35.557Z,8.80
2023-04-16T00:03:23.958Z,8.80
2023-04-16T00:05:51.357Z,8.70
2023-04-16T00:08:18.679Z,8.70
2023-04-16T00:10:45.832Z,8.70
2023-04-16T00:13:13.189Z,8.60
2023-04-16T00:15:40.353Z,8.60
2023-04-16T00:18:07.699Z,8.60
2023-04-16T00:20:34.793Z,8.60
2023-04-16T00:23:04.025Z,8.60
2023-04-16T00:25:32.033Z,8.50
2023-04-16T00:27:59.316Z,8.50
2023-04-16T00:30:26.451Z,8.50
2023-04-16T00:32:53.837Z,8.40
2023-04-16T00:35:21.272Z,8.40
2023-04-16T00:37:48.575Z,8.40
2023-04-16T00:40:15.839Z,8.40
2023-04-16T00:42:43.126Z,8.40
2023-04-16T00:45:11.522Z,8.30
2023-04-16T00:47:39.156Z,8.30
2023-04-16T00:50:07.454Z,8.30
2023-04-16T00:52:35.378Z,8.20
2023-04-16T00:55:08.004Z,8.20
2023-04-16T00:57:35.726Z,8.20
2023-04-16T01:00:04.534Z,8.20
2023-04-16T01:02:33.988Z,8.20
2023-04-16T01:05:03.144Z,8.20
2023-04-16T01:07:30.612Z,8.10
2023-04-16T01:09:57.967Z,8.10
2023-04-16T01:12:25.358Z,8.00
2023-04-16T01:14:53.090Z,8.00
2023-04-16T01:17:20.807Z,8.00
2023-04-16T01:19:48.770Z,8.00
2023-04-16T01:22:16.341Z,8.00
2023-04-16T01:24:43.459Z,8.00
2023-04-16T01:27:11.348Z,7.90
2023-04-16T01:29:38.422Z,7.90
2023-04-16T01:32:05.928Z,7.80
2023-04-16T01:34:36.115Z,7.80
2023-04-16T01:37:04.244Z,7.80
2023-04-16T01:39:31.367Z,7.80
2023-04-16T01:41:58.745Z,7.70
2023-04-16T01:44:26.374Z,7.70
2023-04-16T01:46:53.735Z,7.70
2023-04-16T01:49:22.580Z,7.70
2023-04-16T01:51:49.919Z,7.60
2023-04-16T01:54:16.979Z,7.60
2023-04-16T01:56:44.398Z,7.50
2023-04-16T01:59:12.343Z,7.50
2023-04-16T02:01:42.535Z,7.40
2023-04-16T02:04:11.642Z,7.40
2023-04-16T02:06:39.438Z,7.30
2023-04-16T02:09:06.742Z,7.30
2023-04-16T02:11:34.508Z,7.40
2023-04-16T02:14:02.419Z,7.40
2023-04-16T02:16:31.083Z,7.30
2023-04-16T02:19:18.159Z,7.30
2023-04-16T02:21:46.308Z,7.30
2023-04-16T02:24:13.814Z,7.30
2023-04-16T02:26:42.428Z,7.20
2023-04-16T02:29:16.362Z,7.20
2023-04-16T02:31:50.043Z,7.20
2023-04-16T02:34:18.808Z,7.10
2023-04-16T02:36:46.455Z,7.10
2023-04-16T02:39:13.713Z,7.10
2023-04-16T02:41:41.226Z,7.00
2023-04-16T02:44:08.357Z,7.10
2023-04-16T02:46:35.887Z,7.00
2023-04-16T02:49:03.153Z,7.00
2023-04-16T02:51:30.966Z,7.00
2023-04-16T02:53:58.136Z,6.90
2023-04-16T02:56:25.667Z,6.90
2023-04-16T02:58:54.727Z,6.90
2023-04-16T03:01:22.220Z,6.90
2023-04-16T03:03:49.438Z,6.90
2023-04-16T03:06:16.797Z,6.80
2023-04-16T03:08:43.980Z,6.80
2023-04-16T03:11:11.361Z,6.80
2023-04-16T03:13:38.630Z,6.80
2023-04-16T03:16:06.547Z,6.70
2023-04-16T03:18:33.690Z,6.70
2023-04-16T03:21:00.998Z,6.70
2023-04-16T03:23:28.418Z,6.70
2023-04-16T03:25:55.734Z,6.60
2023-04-16T03:28:23.111Z,6.60
2023-04-16T03:30:54.283Z,6.60
2023-04-16T03:33:22.633Z,6.60
2023-04-16T03:35:58.920Z,6.60
2023-04-16T03:38:31.307Z,6.50
2023-04-16T03:40:59.872Z,6.50
2023-04-16T03:43:27.446Z,6.50
2023-04-16T03:45:54.979Z,6.50
2023-04-16T03:48:23.787Z,6.50
2023-04-16T03:50:51.190Z,6.50
2023-04-16T03:53:20.323Z,6.50
2023-04-16T03:55:52.519Z,6.50
2023-04-16T03:58:21.413Z,6.40
2023-04-16T04:00:48.817Z,6.40
2023-04-16T04:03:18.534Z,6.40
2023-04-16T04:05:48.484Z,6.40
2023-04-16T04:08:20.785Z,6.40
2023-04-16T04:10:48.257Z,6.40
2023-04-16T04:13:16.113Z,6.30
2023-04-16T04:15:44.909Z,6.30
2023-04-16T04:18:12.044Z,6.30
2023-04-16T04:20:43.585Z,6.30
2023-04-16T04:23:13.576Z,6.30
2023-04-16T04:25:41.295Z,6.30
2023-04-16T04:28:08.416Z,6.30
2023-04-16T04:30:36.034Z,6.30
2023-04-16T04:33:04.152Z,6.30
2023-04-16T04:35:31.614Z,6.30
2023-04-16T04:37:59.670Z,6.40
2023-04-16T04:40:29.323Z,6.40
2023-04-16T04:42:56.498Z,6.40
2023-04-16T04:45:29.711Z,6.50
2023-04-16T04:47:59.381Z,6.50
2023-04-16T04:50:26.890Z,6.60
2023-04-16T04:52:54.111Z,6.70
2023-04-16T04:55:22.449Z,6.80
2023-04-16T04:57:50.991Z,6.80
2023-04-16T05:00:18.541Z,6.90
2023-04-16T05:02:53.272Z,6.90
2023-04-16T05:05:20.943Z,7.00
2023-04-16T05:07:48.354Z,7.10
2023-04-16T05:10:16.268Z,7.20
2023-04-16T05:12:43.376Z,7.30
2023-04-16T05:15:11.202Z,7.40
2023-04-16T05:17:38.281Z,7.60
2023-04-16T05:20:07.447Z,7.70
2023-04-16T05:22:34.521Z,7.90
2023-04-16T05:25:06.417Z,8.00
2023-04-16T05:27:33.619Z,8.10
2023-04-16T05:30:00.920Z,8.20
2023-04-16T05:32:28.063Z,8.30
2023-04-16T05:34:55.646Z,8.50
2023-04-16T05:37:22.867Z,8.70
2023-04-16T05:39:50.371Z,8.90
2023-04-16T05:42:17.715Z,9.10
2023-04-16T05:44:45.001Z,9.20
2023-04-16T05:47:12.308Z,9.40
2023-04-16T05:49:39.641Z,9.60
2023-04-16T05:52:07.402Z,9.80
2023-04-16T05:54:34.714Z,9.90
2023-04-16T05:57:04.075Z,10.00
2023-04-16T05:59:31.365Z,10.20
2023-04-16T06:01:58.577Z,10.40
2023-04-16T06:04:26.327Z,10.50
2023-04-16T06:06:53.406Z,10.70
2023-04-16T06:09:20.818Z,10.90
2023-04-16T06:11:48.877Z,11.10
2023-04-16T06:14:16.211Z,11.40
2023-04-16T06:16:43.369Z,11.70
2023-04-16T06:19:10.990Z,11.90
2023-04-16T06:21:38.446Z,12.10
2023-04-16T06:24:06.386Z,12.30
2023-04-16T06:26:33.527Z,12.30
2023-04-16T06:29:01.064Z,12.50
2023-04-16T06:31:28.225Z,12.70
2023-04-16T06:33:55.700Z,12.70
2023-04-16T06:36:22.904Z,12.90
2023-04-16T06:38:50.259Z,13.20
2023-04-16T06:41:17.437Z,13.30
2023-04-16T06:43:44.896Z,13.40
2023-04-16T06:46:12.129Z,13.60
2023-04-16T06:48:39.726Z,13.80
2023-04-16T06:51:07.030Z,14.00
2023-04-16T06:53:34.879Z,14.20
2023-04-16T06:56:02.173Z,14.20
2023-04-16T06:58:29.632Z,14.40
2023-04-16T07:00:56.884Z,14.50
2023-04-16T07:03:24.669Z,14.20
2023-04-16T07:05:51.880Z,14.10
2023-04-16T07:08:19.353Z,14.30
2023-04-16T07:10:46.628Z,14.50
2023-04-16T07:13:14.903Z,14.60
2023-04-16T07:15:42.050Z,14.90
2023-04-16T07:18:09.717Z,15.00
2023-04-16T07:20:36.953Z,15.10
2023-04-16T07:23:04.508Z,15.30
2023-04-16T07:25:31.614Z,15.30
2023-04-16T07:27:59.052Z,15.50
2023-04-16T07:30:32.606Z,15.40
2023-04-16T07:33:04.415Z,15.20
2023-04-16T07:35:32.112Z,15.10
2023-04-16T07:37:59.506Z,15.20
2023-04-16T07:40:26.739Z,15.20
2023-04-16T07:42:55.780Z,15.40
2023-04-16T07:45:23.855Z,15.60
2023-04-16T07:47:51.465Z,15.80
2023-04-16T07:50:19.527Z,15.80
2023-04-16T07:52:47.697Z,16.00
2023-04-16T07:55:15.118Z,16.10
2023-04-16T07:57:42.584Z,16.40
2023-04-16T08:00:10.868Z,16.80
2023-04-16T08:02:43.117Z,16.50
2023-04-16T08:05:11.297Z,16.60
2023-04-16T08:07:38.731Z,16.90
2023-04-16T08:10:06.718Z,17.20
2023-04-16T08:12:34.301Z,17.20
2023-04-16T08:15:01.677Z,17.30
2023-04-16T08:17:30.056Z,17.90
2023-04-16T08:19:57.301Z,18.20
2023-04-16T08:22:24.835Z,18.20
2023-04-16T08:24:52.384Z,18.20
2023-04-16T08:27:20.462Z,18.60
2023-04-16T08:29:48.428Z,18.80
2023-04-16T08:32:15.854Z,18.70
2023-04-16T08:34:43.303Z,18.70
2023-04-16T08:37:10.723Z,18.80
2023-04-16T08:39:38.230Z,19.10
2023-04-16T08:42:18.701Z,19.10
2023-04-16T08:44:52.936Z,19.30
2023-04-16T08:47:25.462Z,19.30
2023-04-16T08:49:58.328Z,19.20
2023-04-16T08:52:31.141Z,19.20
2023-04-16T08:55:13.449Z,19.50
2023-04-16T08:57:59.555Z,19.80
2023-04-16T09:00:31.609Z,19.70
2023-04-16T09:02:59.938Z,20.00
2023-04-16T09:05:29.422Z,20.20
2023-04-16T09:07:57.050Z,20.40
2023-04-16T09:10:27.198Z,20.60
2023-04-16T09:12:57.877Z,20.60
2023-04-16T09:15:25.989Z,20.80
2023-04-16T09:17:54.383Z,20.80
2023-04-16T09:20:21.681Z,20.90
2023-04-16T09:22:49.275Z,21.20
2023-04-16T09:25:16.598Z,21.40
2023-04-16T09:27:44.630Z,21.80
2023-04-16T09:30:28.320Z,21.90
2023-04-16T09:33:22.432Z,21.90
2023-04-16T09:35:52.977Z,22.30
2023-04-16T09:38:21.219Z,22.60
2023-04-16T09:40:48.556Z,22.50
2023-04-16T09:43:18.361Z,22.40
2023-04-16T09:45:54.575Z,22.60
2023-04-16T09:48:33.650Z,22.90
2023-04-16T09:51:01.958Z,23.10
2023-04-16T09:53:31.789Z,23.40
2023-04-16T09:56:07.460Z,23.30
2023-04-16T09:58:38.289Z,23.30
2023-04-16T10:01:12.194Z,23.40
2023-04-16T10:03:41.114Z,23.70
2023-04-16T10:06:21.143Z,24.10
2023-04-16T10:08:58.574Z,24.40
2023-04-16T10:11:26.241Z,24.60
2023-04-16T10:13:53.743Z,24.70
2023-04-16T10:16:23.327Z,24.80
2023-04-16T10:18:51.047Z,24.90
2023-04-16T10:21:19.055Z,25.00
2023-04-16T10:23:47.254Z,25.10
2023-04-16T10:26:15.052Z,25.00
2023-04-16T10:28:42.799Z,24.80
2023-04-16T10:31:10.457Z,24.80
2023-04-16T10:33:42.165Z,25.00
2023-04-16T10:36:13.657Z,25.40
2023-04-16T10:38:50.974Z,25.70
2023-04-16T10:41:20.649Z,25.80
2023-04-16T10:43:50.669Z,26.00
2023-04-16T10:46:33.404Z,25.90
2023-04-16T10:49:03.521Z,26.00
2023-04-16T10:51:36.141Z,26.30
2023-04-16T10:54:04.999Z,26.30
2023-04-16T10:56:34.205Z,26.40
2023-04-16T10:59:05.722Z,26.40
2023-04-16T11:01:35.283Z,26.40
2023-04-16T11:04:25.518Z,26.50
2023-04-16T11:07:13.787Z,26.70
2023-04-16T11:09:50.268Z,26.80
2023-04-16T11:12:33.806Z,27.10
2023-04-16T11:15:13.045Z,27.20
2023-04-16T11:17:44.300Z,27.30
2023-04-16T11:20:21.722Z,27.40
2023-04-16T11:22:50.900Z,27.40
2023-04-16T11:25:23.282Z,27.50
2023-04-16T11:27:52.074Z,27.50
2023-04-16T11:30:30.214Z,27.60
2023-04-16T11:32:57.525Z,27.60
2023-04-16T11:35:25.247Z,28.00
2023-04-16T11:37:57.141Z,28.10
2023-04-16T11:40:29.243Z,27.90
2023-04-16T11:43:02.690Z,28.00
2023-04-16T11:45:30.183Z,27.80
2023-04-16T11:47:57.840Z,27.60
2023-04-16T11:50:28.367Z,27.50
2023-04-16T11:53:02.908Z,27.40
2023-04-16T11:55:31.138Z,27.20
2023-04-16T11:58:11.747Z,27.20
2023-04-16T12:00:39.616Z,27.20
2023-04-16T12:03:08.115Z,27.10
2023-04-16T12:05:39.273Z,27.10
2023-04-16T12:08:11.884Z,27.30
2023-04-16T12:10:56.304Z,27.40
2023-04-16T12:13:23.563Z,27.50
2023-04-16T12:15:53.529Z,27.70
2023-04-16T12:18:29.224Z,27.80
2023-04-16T12:20:56.848Z,28.40
2023-04-16T12:23:27.603Z,28.20
2023-04-16T12:25:59.621Z,28.50
2023-04-16T12:28:28.451Z,29.00
2023-04-16T12:30:56.471Z,29.10
2023-04-16T12:33:24.037Z,29.00
2023-04-16T12:35:51.607Z,28.80
2023-04-16T12:38:19.060Z,28.90
2023-04-16T12:40:47.095Z,29.10
2023-04-16T12:43:14.457Z,28.60
2023-04-16T12:45:42.546Z,28.60
2023-04-16T12:48:10.210Z,28.60
2023-04-16T12:50:39.536Z,28.20
2023-04-16T12:53:07.003Z,28.10
2023-04-16T12:55:34.752Z,28.10
2023-04-16T12:58:01.956Z,28.00
2023-04-16T13:00:29.299Z,28.00
2023-04-16T13:02:56.698Z,28.00
2023-04-16T13:05:24.211Z,28.50
2023-04-16T13:07:51.461Z,28.70
2023-04-16T13:10:21.412Z,28.70
2023-04-16T13:12:48.814Z,28.70
2023-04-16T13:15:16.214Z,29.00
2023-04-16T13:17:43.607Z,29.10
2023-04-16T13:20:11.484Z,29.10
2023-04-16T13:22:39.387Z,29.00
2023-04-16T13:25:08.012Z,28.90
2023-04-16T13:27:35.254Z,28.90
2023-04-16T13:30:02.579Z,28.90
2023-04-16T13:32:29.809Z,28.70
2023-04-16T13:34:57.259Z,28.50
2023-04-16T13:37:24.381Z,28.40
2023-04-16T13:39:51.744Z,28.20
2023-04-16T13:42:18.865Z,28.30
2023-04-16T13:44:48.817Z,28.40
2023-04-16T13:47:16.786Z,28.40
2023-04-16T13:49:44.103Z,28.30
2023-04-16T13:52:11.414Z,28.10
2023-04-16T13:54:38.841Z,28.00
2023-04-16T13:57:06.539Z,28.20
2023-04-16T13:59:33.968Z,28.20
2023-04-16T14:02:01.275Z,28.30
2023-04-16T14:04:28.797Z,28.30
2023-04-16T14:06:56.102Z,28.10
2023-04-16T14:09:23.908Z,27.80
2023-04-16T14:11:51.461Z,27.90
2023-04-16T14:14:19.000Z,28.10
2023-04-16T14:16:46.284Z,28.00
2023-04-16T14:19:14.262Z,28.00
2023-04-16T14:21:41.418Z,27.70
2023-04-16T14:24:09.314Z,27.40
2023-04-16T14:26:36.545Z,27.10
2023-04-16T14:29:03.903Z,26.80
2023-04-16T14:31:32.345Z,26.80
2023-04-16T14:33:59.864Z,26.80
2023-04-16T14:36:27.358Z,26.80
2023-04-16T14:38:54.930Z,26.70
2023-04-16T14:41:22.157Z,26.60
2023-04-16T14:43:49.743Z,26.60
2023-04-16T14:46:19.998Z,26.70
2023-04-16T14:48:47.460Z,26.70
2023-04-16T14:51:14.506Z,26.70
2023-04-16T14:53:42.114Z,26.70
2023-04-16T14:56:10.868Z,26.60
2023-04-16T14:58:39.458Z,26.50
2023-04-16T15:01:06.789Z,26.30
2023-04-16T15:03:34.797Z,26.10
2023-04-16T15:06:02.484Z,26.00
2023-04-16T15:08:30.047Z,24.50
2023-04-16T15:10:57.180Z,24.90
2023-04-16T15:13:24.880Z,24.80
2023-04-16T15:15:52.229Z,24.60
2023-04-16T15:18:19.928Z,24.80
2023-04-16T15:20:46.946Z,24.00
2023-04-16T15:23:14.659Z,23.20
2023-04-16T15:25:41.738Z,23.50
2023-04-16T15:28:09.189Z,23.40
2023-04-16T15:30:40.284Z,22.60
2023-04-16T15:33:08.833Z,22.90
2023-04-16T15:35:38.780Z,23.10
2023-04-16T15:38:06.154Z,23.60
2023-04-16T15:40:33.284Z,23.70
2023-04-16T15:43:02.281Z,23.70
2023-04-16T15:45:29.540Z,23.80
2023-04-16T15:47:56.980Z,23.80
2023-04-16T15:50:26.300Z,23.70
2023-04-16T15:52:53.871Z,23.30
2023-04-16T15:55:21.074Z,22.90
2023-04-16T15:57:48.430Z,23.10
2023-04-16T16:00:18.846Z,23.10
2023-04-16T16:02:47.744Z,23.00
2023-04-16T16:05:16.348Z,23.00
2023-04-16T16:07:44.059Z,23.00
2023-04-16T16:10:12.984Z,22.90
2023-04-16T16:12:42.343Z,22.90
2023-04-16T16:15:16.623Z,22.90
2023-04-16T16:17:44.462Z,22.90
2023-04-16T16:20:12.747Z,22.80
2023-04-16T16:22:40.647Z,22.80
2023-04-16T16:25:08.391Z,22.70
2023-04-16T16:27:36.551Z,22.70
2023-04-16T16:30:06.638Z,22.60
2023-04-16T16:32:34.387Z,22.50
2023-04-16T16:35:01.853Z,22.40
2023-04-16T16:37:29.587Z,22.30
2023-04-16T16:39:56.707Z,21.60
2023-04-16T16:42:24.191Z,21.30
2023-04-16T16:44:51.459Z,21.40
2023-04-16T16:47:20.490Z,20.80
2023-04-16T16:49:48.349Z,20.40
2023-04-16T16:52:16.097Z,20.30
2023-04-16T16:54:43.210Z,20.10
2023-04-16T16:57:12.388Z,20.50
2023-04-16T16:59:39.624Z,20.30
2023-04-16T17:02:07.727Z,20.20
2023-04-16T17:04:35.250Z,20.40
2023-04-16T17:07:02.790Z,20.50
2023-04-16T17:09:29.895Z,20.60
2023-04-16T17:11:57.284Z,20.50
2023-04-16T17:14:24.737Z,20.50
2023-04-16T17:16:52.314Z,20.40
2023-04-16T17:19:20.698Z,20.40
2023-04-16T17:21:48.121Z,20.40
2023-04-16T17:24:15.160Z,20.30
2023-04-16T17:26:42.653Z,20.30
2023-04-16T17:29:10.032Z,20.20
2023-04-16T17:31:37.704Z,20.10
2023-04-16T17:34:06.204Z,20.10
2023-04-16T17:36:34.486Z,20.00
2023-04-16T17:39:03.164Z,19.90
2023-04-16T17:41:31.031Z,19.90
2023-04-16T17:43:58.092Z,19.80
2023-04-16T17:46:25.782Z,19.70
2023-04-16T17:48:53.083Z,19.60
2023-04-16T17:51:42.521Z,19.60
2023-04-16T17:54:21.426Z,19.50
2023-04-16T17:56:48.835Z,19.40
2023-04-16T17:59:15.955Z,19.30
2023-04-16T18:01:44.406Z,19.20
2023-04-16T18:04:12.166Z,19.10
2023-04-16T18:06:39.846Z,19.10
2023-04-16T18:09:06.948Z,19.00
2023-04-16T18:11:34.631Z,18.90
2023-04-16T18:14:02.570Z,18.80
2023-04-16T18:16:29.888Z,18.70
2023-04-16T18:18:57.086Z,18.70
2023-04-16T18:21:24.614Z,18.60
2023-04-16T18:23:51.687Z,18.50
2023-04-16T18:26:22.392Z,18.50
2023-04-16T18:28:50.352Z,18.40
2023-04-16T18:31:24.627Z,18.30
2023-04-16T18:33:56.507Z,18.30
2023-04-16T18:36:28.574Z,18.20
2023-04-16T18:39:01.691Z,18.20
2023-04-16T18:41:31.255Z,18.10
2023-04-16T18:43:58.579Z,18.10
2023-04-16T18:46:27.232Z,18.00
2023-04-16T18:48:54.525Z,17.90
2023-04-16T18:51:21.896Z,17.80
2023-04-16T18:53:48.982Z,17.80
2023-04-16T18:56:16.893Z,17.70
2023-04-16T18:58:44.035Z,17.70
2023-04-16T19:01:14.361Z,17.60
2023-04-16T19:03:42.689Z,17.50
2023-04-16T19:06:10.277Z,17.50
2023-04-16T19:08:37.847Z,17.40
2023-04-16T19:11:07.640Z,17.40
2023-04-16T19:13:34.754Z,17.30
2023-04-16T19:16:02.611Z,17.20
2023-04-16T19:18:29.711Z,17.10
2023-04-16T19:21:01.084Z,17.10
2023-04-16T19:23:29.014Z,17.00
2023-04-16T19:26:07.527Z,16.90
2023-04-16T19:28:42.475Z,16.90
2023-04-16T19:31:09.954Z,16.80
2023-04-16T19:33:37.267Z,16.80
2023-04-16T19:36:05.168Z,16.70
2023-04-16T19:38:32.406Z,16.60
2023-04-16T19:40:59.760Z,16.50
2023-04-16T19:43:28.395Z,16.50
2023-04-16T19:45:57.347Z,16.40
2023-04-16T19:48:24.818Z,16.40
2023-04-16T19:50:53.910Z,16.30
2023-04-16T19:53:21.819Z,16.20
2023-04-16T19:55:49.760Z,16.20
2023-04-16T19:58:19.142Z,16.10
2023-04-16T20:00:49.850Z,16.10
2023-04-16T20:03:17.351Z,16.10
2023-04-16T20:05:49.912Z,16.00
2023-04-16T20:08:17.958Z,15.90
2023-04-16T20:10:48.542Z,15.90
2023-04-16T20:13:18.553Z,15.80
2023-04-16T20:15:52.798Z,15.80
2023-04-16T20:18:21.898Z,15.70
2023-04-16T20:20:51.503Z,15.70
2023-04-16T20:23:20.669Z,15.60
2023-04-16T20:25:49.430Z,15.50
2023-04-16T20:28:21.024Z,15.50
2023-04-16T20:30:48.483Z,15.40
2023-04-16T20:33:15.670Z,15.40
2023-04-16T20:35:43.264Z,15.30
2023-04-16T20:38:10.431Z,15.30
2023-04-16T20:40:40.203Z,15.20
2023-04-16T20:43:11.374Z,15.20
2023-04-16T20:45:46.012Z,15.10
2023-04-16T20:48:13.284Z,15.00
2023-04-16T20:50:40.733Z,15.00
2023-04-16T20:53:08.083Z,14.90
2023-04-16T20:55:35.427Z,14.90
2023-04-16T20:58:02.563Z,14.80
2023-04-16T21:00:29.939Z,14.80
2023-04-16T21:02:57.302Z,14.70
2023-04-16T21:05:26.480Z,14.70
2023-04-16T21:07:55.764Z,14.60
2023-04-16T21:10:22.946Z,14.50
2023-04-16T21:12:50.343Z,14.50
2023-04-16T21:15:17.535Z,14.40
2023-04-16T21:17:45.090Z,14.40
2023-04-16T21:20:13.643Z,14.40
2023-04-16T21:22:41.278Z,14.30
2023-04-16T21:25:09.197Z,14.20
2023-04-16T21:27:36.590Z,14.20
2023-04-16T21:30:04.117Z,14.10
2023-04-16T21:32:31.593Z,14.00
2023-04-16T21:34:58.718Z,14.00
2023-04-16T21:37:26.132Z,13.90
2023-04-16T21:39:53.155Z,13.90
2023-04-16T21:42:20.548Z,13.80
2023-04-16T21:44:47.702Z,13.80
2023-04-16T21:47:15.091Z,13.80
2023-04-16T21:49:45.403Z,13.70
2023-04-16T21:52:18.209Z,13.70
2023-04-16T21:54:46.091Z,13.60
2023-04-16T21:57:13.783Z,13.50
2023-04-16T21:59:41.362Z,13.50
2023-04-16T22:02:08.786Z,13.40
2023-04-16T22:04:39.961Z,13.40
2023-04-16T22:07:10.061Z,13.30
2023-04-16T22:09:41.466Z,13.30
2023-04-16T22:12:11.554Z,13.20
2023-04-16T22:14:44.091Z,13.20
2023-04-16T22:17:17.141Z,13.10
2023-04-16T22:19:44.562Z,13.00
2023-04-16T22:22:12.171Z,13.00
2023-04-16T22:24:39.310Z,12.90
2023-04-16T22:27:06.796Z,12.90
2023-04-16T22:29:33.864Z,12.80
2023-04-16T22:32:01.981Z,12.80
2023-04-16T22:34:29.179Z,12.70
2023-04-16T22:36:56.852Z,12.70
2023-04-16T22:39:24.082Z,12.70
2023-04-16T22:41:51.726Z,12.60
2023-04-16T22:44:18.761Z,12.50
2023-04-16T22:46:47.139Z,12.40
2023-04-16T22:49:14.407Z,12.40
2023-04-16T22:51:41.744Z,12.30
2023-04-16T22:54:13.632Z,12.30
2023-04-16T22:56:41.282Z,12.30
2023-04-16T22:59:08.493Z,12.30
2023-04-16T23:01:36.557Z,12.30
2023-04-16T23:04:03.894Z,12.10
2023-04-16T23:06:34.528Z,12.10
2023-04-16T23:09:01.654Z,12.10
2023-04-16T23:11:29.000Z,12.00
2023-04-16T23:13:56.155Z,12.00
2023-04-16T23:16:23.538Z,11.90
2023-04-16T23:18:50.627Z,11.90
2023-04-16T23:21:17.917Z,11.90
2023-04-16T23:23:45.103Z,11.80
2023-04-16T23:26:12.523Z,11.80
2023-04-16T23:28:39.599Z,11.70
2023-04-16T23:31:07.647Z,11.70
2023-04-16T23:33:34.995Z,11.70
2023-04-16T23:36:02.377Z,11.60
2023-04-16T23:38:29.508Z,11.60
2023-04-16T23:40:56.848Z,11.50
2023-04-16T23:43:23.860Z,11.50
2023-04-16T23:45:51.277Z,11.50
2023-04-16T23:48:18.398Z,11.50
2023-04-16T23:50:45.783Z,11.40
2023-04-16T23:53:13.317Z,11.40
2023-04-16T23:55:40.789Z,11.30
2023-04-16T23:58:07.876Z,11.30
